Tuesday, May 26, 2015, 11:36 PM EDT

KTHV, York Airport

Location: Spring Grove, PA, United States Lat: 39.917
Local Time: 11:36 PM EDT ( 3:36 GMT) Lon: -76.883
Time Zone: US/Eastern Elev: 478 ft

Show me the last for .
Show Decoded

2015-05-26 21:53 METAR KTHV 270153Z AUTO VRB04KT 10SM CLR 24/19 A3014 RMK AO2 SLP203 T02440194 =
2015-05-26 20:53 METAR KTHV 270053Z AUTO 15005KT 10SM CLR 25/19 A3013 RMK AO2 SLP201 T02500194 =
2015-05-26 19:53 METAR KTHV 262353Z AUTO VRB03KT 10SM CLR 26/19 A3012 RMK AO2 SLP197 T02610189
                 10289 20261 56008 =
2015-05-26 18:53 METAR KTHV 262253Z AUTO VRB03KT 10SM CLR 28/19 A3012 RMK AO2 SLP199 T02780189 =
2015-05-26 16:53 METAR KTHV 262053Z AUTO 20008KT 10SM CLR 28/18 A3015 RMK AO2 SLP207 T02780183
                 58014 =
2015-05-26 14:53 METAR KTHV 261853Z AUTO 22006KT 10SM CLR 28/18 A3017 RMK AO2 SLP216 T02830178 =
2015-05-26 13:53 METAR KTHV 261753Z AUTO 23007KT 200V280 10SM CLR 29/18 A3019 RMK AO2 SLP220
                 T02890178 10289 20206 58008 =
2015-05-26 12:53 METAR KTHV 261653Z AUTO VRB04KT 10SM CLR 28/17 A3020 RMK AO2 SLP225 T02780172 =
2015-05-26 11:53 METAR KTHV 261553Z AUTO VRB04KT 10SM CLR 27/17 A3021 RMK AO2 SLP228 T02670167 =
2015-05-26 10:53 METAR KTHV 261453Z AUTO VRB03KT 10SM CLR 26/17 A3021 RMK AO2 SLP228 T02560167
                 58003 =
2015-05-26 08:53 METAR KTHV 261253Z AUTO VRB03KT 10SM CLR 22/16 A3022 RMK AO2 SLP232 T02220156 =
2015-05-26 07:53 METAR KTHV 261153Z AUTO VRB05KT 10SM CLR 21/15 A3022 RMK AO2 SLP231 T02060150
                 10206 20161 52013 =
2015-05-26 06:53 METAR KTHV 261053Z AUTO 00000KT 10SM CLR 19/15 A3020 RMK AO2 SLP226 T01940150 $
                 =
2015-05-26 05:53 METAR KTHV 260953Z AUTO 15003KT 10SM CLR 17/14 A3019 RMK AO2 SLP223 T01720144 $
                 =
2015-05-26 04:53 METAR KTHV 260853Z AUTO 09003KT 10SM CLR 16/14 A3018 RMK AO2 SLP219 T01610139
                 55000 $ =
2015-05-26 03:53 METAR KTHV 260753Z AUTO 08003KT 10SM CLR 16/14 A3017 RMK AO2 SLP216 T01610139 $
                 =
2015-05-26 01:53 METAR KTHV 260553Z AUTO 00000KT 10SM CLR 19/15 A3018 RMK AO2 SLP218 T01940150
                 10256 20194 58004 $ =
2015-05-26 00:53 METAR KTHV 260453Z AUTO VRB04KT 10SM CLR 20/15 A3018 RMK AO2 SLP220 T02000150
                 402830139 $ =
2015-05-25 23:53 METAR KTHV 260353Z AUTO 15005KT 10SM CLR 21/14 A3019 RMK AO2 SLP222 T02110144 $
                 =

Support USWX by starting your Amazon purchase here.